Time;durP1;ratioP1;P1;durP2;ratioP2;P2;SDS_P1;SDS_P2;PMS_P1;PMS_P2;Temp;Humidity;BMP_temperature;BMP_pressure;BME280_temperature;BME280_humidity;BME280_pressure;Samples;Min_cycle;Max_cycle;Signal;HPM_P1;HPM_P2
2021/10/06 00:02:11;;;;;;;9.13;1.67;;;;;10.40;100470.00;;;;10466162;28;20251;-77
2021/10/06 00:07:13;;;;;;;14.00;2.80;;;;;10.30;100469.00;;;;10482566;28;20260;-77
2021/10/06 00:12:15;;;;;;;9.23;2.23;;;;;10.30;100474.00;;;;10499085;28;20174;-77
2021/10/06 00:17:17;;;;;;;17.43;2.60;;;;;10.30;100470.00;;;;10465145;28;20688;-77
2021/10/06 00:22:21;;;;;;;7.30;2.43;;;;;10.30;100476.00;;;;10481506;28;20232;-78
2021/10/06 00:27:23;;;;;;;10.70;2.00;;;;;10.30;100473.00;;;;10481193;28;20194;-77
2021/10/06 00:32:25;;;;;;;9.07;2.33;;;;;10.30;100477.00;;;;10465349;28;20190;-77
2021/10/06 00:37:27;;;;;;;12.07;2.50;;;;;10.20;100478.00;;;;10488630;28;20579;-78
2021/10/06 00:42:29;;;;;;;8.17;1.83;;;;;10.30;100493.00;;;;10468262;28;20237;-77
2021/10/06 00:47:30;;;;;;;8.30;2.50;;;;;10.40;100499.00;;;;10459911;28;20193;-77
2021/10/06 00:52:32;;;;;;;9.23;2.17;;;;;10.40;100503.00;;;;10487444;28;20224;-77
2021/10/06 00:57:34;;;;;;;6.93;1.83;;;;;10.30;100499.00;;;;10472339;28;20292;-78
2021/10/06 01:02:36;;;;;;;7.20;2.10;;;;;10.30;100504.00;;;;10471834;28;20197;-77
2021/10/06 01:07:39;;;;;;;10.90;2.20;;;;;10.30;100500.00;;;;10486945;28;20193;-77
2021/10/06 01:12:41;;;;;;;9.90;2.13;;;;;10.40;100503.00;;;;10486834;28;20223;-77
2021/10/06 01:17:43;;;;;;;10.17;2.73;;;;;10.40;100494.00;;;;10462830;28;20195;-77
2021/10/06 01:22:46;;;;;;;10.90;2.30;;;;;10.40;100515.00;;;;10486023;28;20209;-77
2021/10/06 01:27:47;;;;;;;8.83;2.20;;;;;10.30;100518.00;;;;10469751;28;20205;-77
2021/10/06 01:32:49;;;;;;;7.77;1.73;;;;;10.20;100516.00;;;;10469945;28;20190;-77
2021/10/06 01:37:51;;;;;;;5.83;1.50;;;;;10.20;100525.00;;;;10453229;28;20193;-77
2021/10/06 01:42:53;;;;;;;7.03;1.73;;;;;10.20;100520.00;;;;10502861;28;20274;-76
2021/10/06 01:48:10;;;;;;;8.77;2.40;;;;;10.10;100527.00;;;;10452273;28;20205;-77
2021/10/06 01:53:15;;;;;;;6.17;2.10;;;;;10.10;100524.00;;;;10466168;28;20250;-77
2021/10/06 01:58:19;;;;;;;6.50;1.63;;;;;10.20;100523.00;;;;10502706;28;20201;-76
2021/10/06 02:03:20;;;;;;;6.13;1.60;;;;;10.10;100523.00;;;;10452004;28;20664;-76
2021/10/06 02:08:22;;;;;;;5.93;1.80;;;;;10.20;100535.00;;;;10485063;28;20194;-76
2021/10/06 02:13:24;;;;;;;7.53;2.50;;;;;10.30;100526.00;;;;10517785;28;20227;-77
2021/10/06 02:18:26;;;;;;;5.67;1.80;;;;;10.40;100538.00;;;;10501551;28;20220;-77
2021/10/06 02:23:28;;;;;;;7.37;1.50;;;;;10.40;100546.00;;;;10467483;28;20260;-77
2021/10/06 02:28:30;;;;;;;7.97;1.83;;;;;10.50;100539.00;;;;10500598;28;20192;-77
2021/10/06 02:33:32;;;;;;;7.43;1.70;;;;;10.60;100547.00;;;;10509345;28;20246;-77
2021/10/06 02:38:34;;;;;;;8.73;1.70;;;;;10.70;100538.00;;;;10432627;28;20198;-77
2021/10/06 02:43:36;;;;;;;11.97;2.17;;;;;10.80;100549.00;;;;10476738;28;20221;-77
2021/10/06 02:48:38;;;;;;;6.33;2.03;;;;;10.80;100537.00;;;;10483376;28;20636;-77
2021/10/06 02:53:40;;;;;;;7.40;1.50;;;;;10.80;100540.00;;;;10500395;28;20186;-77
2021/10/06 02:58:42;;;;;;;11.70;1.80;;;;;10.80;100539.00;;;;10492811;28;20212;-77
2021/10/06 03:03:44;;;;;;;4.87;1.70;;;;;10.80;100534.00;;;;10482117;28;20213;-78
2021/10/06 03:08:46;;;;;;;2.77;1.40;;;;;10.80;100543.00;;;;10466218;28;20251;-77
2021/10/06 03:13:48;;;;;;;5.90;1.30;;;;;10.80;100544.00;;;;10461311;28;20188;-77
2021/10/06 03:18:50;;;;;;;6.97;1.63;;;;;10.80;100539.00;;;;10482229;28;20637;-77
2021/10/06 03:23:52;;;;;;;5.93;1.20;;;;;10.80;100551.00;;;;10465900;28;20279;-77
2021/10/06 03:28:54;;;;;;;6.77;1.57;;;;;10.80;100551.00;;;;10465315;28;20224;-76
2021/10/06 03:33:58;;;;;;;7.60;1.43;;;;;10.80;100543.00;;;;10482629;28;20239;-77
2021/10/06 03:38:59;;;;;;;10.53;1.70;;;;;10.80;100556.00;;;;10481469;28;20190;-76
2021/10/06 03:44:01;;;;;;;6.57;1.40;;;;;10.80;100550.00;;;;10468719;28;20247;-76
2021/10/06 03:49:03;;;;;;;6.93;1.30;;;;;10.70;100567.00;;;;10481479;28;20200;-77
2021/10/06 03:54:05;;;;;;;4.67;1.40;;;;;10.80;100575.00;;;;10481583;28;20220;-77
2021/10/06 03:59:11;;;;;;;5.53;1.77;;;;;10.80;100577.00;;;;10464446;28;20193;-76
2021/10/06 04:04:13;;;;;;;5.70;1.30;;;;;10.90;100589.00;;;;10456991;28;20232;-77
2021/10/06 04:09:15;;;;;;;7.20;1.50;;;;;10.90;100570.00;;;;10469255;28;20197;-77
2021/10/06 04:14:17;;;;;;;3.80;1.40;;;;;10.90;100562.00;;;;10460115;28;20193;-77
2021/10/06 04:19:19;;;;;;;4.90;1.30;;;;;10.80;100565.00;;;;10489155;28;20216;-77
2021/10/06 04:24:20;;;;;;;7.50;1.50;;;;;10.90;100580.00;;;;10472874;28;20247;-77
2021/10/06 04:29:22;;;;;;;5.67;1.40;;;;;10.80;100589.00;;;;10505776;28;20228;-76
2021/10/06 04:34:24;;;;;;;6.87;1.60;;;;;10.80;100604.00;;;;10472133;28;20224;-77
2021/10/06 04:39:26;;;;;;;6.13;1.60;;;;;10.80;100606.00;;;;10471044;28;20181;-77
2021/10/06 04:44:28;;;;;;;4.30;1.20;;;;;10.80;100611.00;;;;10454921;28;20193;-78
2021/10/06 04:49:30;;;;;;;5.87;1.47;;;;;10.80;100611.00;;;;10470992;28;20205;-77
2021/10/06 04:54:31;;;;;;;5.57;1.50;;;;;10.70;100607.00;;;;10471360;28;20213;-77
2021/10/06 04:59:33;;;;;;;6.00;1.17;;;;;10.70;100601.00;;;;10470316;28;20202;-76
2021/10/06 05:04:36;;;;;;;7.03;2.13;;;;;10.60;100600.00;;;;10470890;28;20202;-78
2021/10/06 05:09:37;;;;;;;7.17;1.87;;;;;10.60;100615.00;;;;10465167;28;20189;-77
2021/10/06 05:14:39;;;;;;;5.97;1.50;;;;;10.60;100621.00;;;;10486840;28;20194;-77
2021/10/06 05:19:41;;;;;;;5.00;1.37;;;;;10.50;100618.00;;;;10486191;28;20213;-77
2021/10/06 05:24:45;;;;;;;5.70;2.50;;;;;10.50;100607.00;;;;10467324;28;20228;-78
2021/10/06 05:29:47;;;;;;;7.90;2.07;;;;;10.50;100615.00;;;;10485077;28;20596;-78
2021/10/06 05:34:49;;;;;;;9.40;3.73;;;;;10.40;100623.00;;;;10448264;28;20193;-78
2021/10/06 05:39:51;;;;;;;8.60;1.60;;;;;10.50;100634.00;;;;10467351;28;20210;-77
2021/10/06 05:44:52;;;;;;;5.43;1.47;;;;;10.50;100639.00;;;;10457333;28;20783;-77
2021/10/06 05:49:54;;;;;;;5.40;1.50;;;;;10.40;100644.00;;;;10443226;28;20260;-78
2021/10/06 05:54:56;;;;;;;12.47;2.03;;;;;10.40;100640.00;;;;10455710;28;20292;-79
2021/10/06 05:59:58;;;;;;;10.70;1.97;;;;;10.40;100637.00;;;;10444094;28;20569;-79
2021/10/06 06:05:01;;;;;;;8.63;2.10;;;;;10.40;100627.00;;;;10456811;28;20190;-79
2021/10/06 06:10:05;;;;;;;7.83;1.60;;;;;10.30;100633.00;;;;10446106;28;20190;-78
2021/10/06 06:15:07;;;;;;;5.60;1.90;;;;;10.30;100637.00;;;;10436053;28;20233;-78
2021/10/06 06:20:12;;;;;;;7.60;2.17;;;;;10.40;100638.00;;;;10460472;28;20572;-77
2021/10/06 06:25:14;;;;;;;8.00;3.00;;;;;10.40;100647.00;;;;10433066;28;20244;-78
2021/10/06 06:30:16;;;;;;;8.10;2.20;;;;;10.50;100648.00;;;;10459140;28;20186;-78
2021/10/06 06:35:18;;;;;;;7.23;2.00;;;;;10.60;100661.00;;;;10477203;28;20560;-78
2021/10/06 06:40:20;;;;;;;6.57;2.20;;;;;10.60;100664.00;;;;10483844;28;20271;-78
2021/10/06 06:45:22;;;;;;;10.80;3.10;;;;;10.60;100669.00;;;;10449573;28;20189;-79
2021/10/06 06:50:24;;;;;;;14.87;7.07;;;;;10.60;100665.00;;;;10467207;28;20262;-78
2021/10/06 06:55:26;;;;;;;7.63;2.73;;;;;10.80;100666.00;;;;10463977;28;20206;-79
2021/10/06 07:00:28;;;;;;;37.13;25.77;;;;;10.70;100682.00;;;;10475162;28;20201;-78
2021/10/06 07:05:30;;;;;;;148.93;109.90;;;;;10.60;100693.00;;;;10482063;28;20194;-78
2021/10/06 07:10:32;;;;;;;17.50;12.60;;;;;10.70;100693.00;;;;10465477;28;20315;-79
2021/10/06 07:15:35;;;;;;;10.37;3.20;;;;;10.80;100702.00;;;;10465538;28;20284;-78
2021/10/06 07:20:37;;;;;;;12.80;3.50;;;;;10.90;100695.00;;;;10466615;28;20219;-79
2021/10/06 07:25:39;;;;;;;9.00;2.50;;;;;11.10;100708.00;;;;10482532;28;20211;-78
2021/10/06 07:30:41;;;;;;;7.77;2.60;;;;;11.00;100709.00;;;;10449356;28;20209;-79
2021/10/06 07:35:43;;;;;;;6.70;2.47;;;;;11.00;100705.00;;;;10480755;28;20244;-79
2021/10/06 07:40:45;;;;;;;7.67;1.97;;;;;11.00;100724.00;;;;10478261;28;20222;-79
2021/10/06 07:45:47;;;;;;;8.70;2.50;;;;;11.10;100719.00;;;;10407742;28;20202;-78
2021/10/06 07:50:49;;;;;;;6.30;2.20;;;;;11.00;100733.00;;;;10485835;28;20310;-79
2021/10/06 07:55:51;;;;;;;8.23;2.43;;;;;10.90;100741.00;;;;10499357;28;20287;-79
2021/10/06 08:00:53;;;;;;;9.90;2.80;;;;;11.20;100753.00;;;;10455421;28;20259;-78
2021/10/06 08:05:55;;;;;;;9.23;4.00;;;;;11.30;100757.00;;;;10423989;28;20195;-78
2021/10/06 08:10:59;;;;;;;11.47;6.50;;;;;11.20;100759.00;;;;10466431;28;20181;-78
2021/10/06 08:16:02;;;;;;;4.07;2.90;;;;;11.50;100767.00;;;;10456736;28;20182;-78
2021/10/06 08:21:04;;;;;;;10.37;4.63;;;;;11.80;100763.00;;;;10457174;28;20214;-78
2021/10/06 08:26:06;;;;;;;10.87;4.23;;;;;12.30;100774.00;;;;10441430;28;20194;-79
2021/10/06 08:31:08;;;;;;;8.37;3.30;;;;;12.50;100817.00;;;;10464355;28;20186;-77
2021/10/06 08:36:10;;;;;;;3.90;3.13;;;;;12.40;100824.00;;;;10463942;28;20611;-78
2021/10/06 08:41:12;;;;;;;6.63;3.10;;;;;12.30;100837.00;;;;10481195;28;20205;-77
2021/10/06 08:46:14;;;;;;;9.83;3.57;;;;;12.20;100854.00;;;;10462772;28;20197;-77
2021/10/06 08:51:16;;;;;;;19.10;8.60;;;;;11.90;100846.00;;;;10446736;28;20229;-78
2021/10/06 08:56:22;;;;;;;7.33;5.63;;;;;11.80;100853.00;;;;10453500;28;20189;-78
2021/10/06 09:01:26;;;;;;;6.37;4.27;;;;;11.90;100861.00;;;;10510582;28;20290;-78
2021/10/06 09:06:34;;;;;;;7.43;3.57;;;;;12.00;100870.00;;;;10498352;28;20185;-77
2021/10/06 09:11:35;;;;;;;7.63;4.10;;;;;12.00;100872.00;;;;10476442;28;20198;-78
2021/10/06 09:16:38;;;;;;;5.93;3.10;;;;;12.10;100878.00;;;;10490891;28;20201;-78
2021/10/06 09:21:57;;;;;;;7.37;3.90;;;;;12.30;100885.00;;;;10476367;28;20637;-78
2021/10/06 09:27:06;;;;;;;4.87;2.80;;;;;12.30;100892.00;;;;10472254;28;20193;-78
2021/10/06 09:32:20;;;;;;;4.80;3.20;;;;;12.10;100892.00;;;;10463057;28;20189;-79
2021/10/06 09:37:25;;;;;;;6.00;2.40;;;;;12.10;100908.00;;;;10486752;28;20251;-78
2021/10/06 09:42:27;;;;;;;6.33;2.90;;;;;11.90;100911.00;;;;10503116;28;20316;-79
2021/10/06 09:47:32;;;;;;;4.80;2.77;;;;;11.70;100916.00;;;;10480298;28;20206;-79
2021/10/06 09:52:34;;;;;;;3.70;2.77;;;;;11.70;100925.00;;;;10473100;28;20262;-78
2021/10/06 09:57:39;;;;;;;7.63;2.90;;;;;11.90;100925.00;;;;10441719;28;20204;-79
2021/10/06 10:02:41;;;;;;;4.30;2.73;;;;;12.30;100937.00;;;;10475858;28;20223;-79
2021/10/06 10:07:43;;;;;;;6.50;3.20;;;;;12.40;100946.00;;;;10474383;28;20193;-78
2021/10/06 10:12:45;;;;;;;3.93;3.00;;;;;12.40;100940.00;;;;10479372;28;20323;-78
2021/10/06 10:17:55;;;;;;;4.43;3.13;;;;;12.70;100945.00;;;;10474449;28;20201;-78
2021/10/06 10:23:01;;;;;;;3.13;2.37;;;;;13.10;100962.00;;;;10485042;28;20209;-78
2021/10/06 10:28:10;;;;;;;3.90;2.50;;;;;12.90;100974.00;;;;10489791;28;20208;-77
2021/10/06 10:33:36;;;;;;;5.63;3.03;;;;;12.90;100993.00;;;;10442824;28;20205;-77
2021/10/06 10:38:38;;;;;;;4.77;2.90;;;;;12.50;100996.00;;;;10465292;28;20572;-78
2021/10/06 10:43:57;;;;;;;5.10;3.10;;;;;12.20;101003.00;;;;10482879;28;20205;-78
2021/10/06 10:49:02;;;;;;;3.10;2.80;;;;;12.90;101016.00;;;;10465445;28;20201;-78
2021/10/06 10:54:09;;;;;;;5.03;2.23;;;;;13.00;101030.00;;;;10470663;28;20198;-78
2021/10/06 10:59:17;;;;;;;4.37;2.33;;;;;12.90;101035.00;;;;10507090;28;20193;-78
2021/10/06 11:04:28;;;;;;;3.40;2.70;;;;;13.30;101040.00;;;;10463940;28;20202;-78
2021/10/06 11:09:30;;;;;;;6.63;3.37;;;;;13.30;101047.00;;;;10463636;28;20197;-77
2021/10/06 11:14:40;;;;;;;4.50;3.30;;;;;15.00;101073.00;;;;10476992;28;20653;-78
2021/10/06 11:19:55;;;;;;;5.07;3.00;;;;;16.20;101092.00;;;;10478436;28;20677;-77
2021/10/06 11:25:05;;;;;;;5.10;2.50;;;;;16.20;101108.00;;;;10462805;28;20206;-78
2021/10/06 11:30:11;;;;;;;4.23;2.30;;;;;15.80;101124.00;;;;10479252;28;20185;-78
2021/10/06 11:35:13;;;;;;;4.50;2.90;;;;;16.20;101128.00;;;;10448129;28;20194;-78
2021/10/06 11:40:17;;;;;;;4.93;2.73;;;;;15.30;101136.00;;;;10451207;28;20213;-78
2021/10/06 11:45:23;;;;;;;6.93;3.13;;;;;14.70;101125.00;;;;10445724;28;20263;-78
2021/10/06 11:50:25;;;;;;;6.33;2.57;;;;;15.10;101134.00;;;;10448545;28;20193;-78
2021/10/06 11:55:26;;;;;;;3.80;2.60;;;;;15.30;101148.00;;;;10464434;28;20648;-77
2021/10/06 12:00:31;;;;;;;4.23;2.60;;;;;15.10;101162.00;;;;10473215;28;20261;-77
2021/10/06 12:05:33;;;;;;;5.50;2.97;;;;;15.20;101161.00;;;;10435390;28;20197;-78
2021/10/06 12:10:37;;;;;;;6.20;2.60;;;;;15.60;101172.00;;;;10473783;28;20193;-78
2021/10/06 12:15:39;;;;;;;5.83;2.60;;;;;15.90;101179.00;;;;10460017;28;20247;-78
2021/10/06 12:20:43;;;;;;;3.88;2.50;;;;;16.30;101196.00;;;;10460236;28;20276;-78
2021/10/06 12:25:52;;;;;;;8.43;2.53;;;;;15.90;101197.00;;;;10477185;28;20718;-78
2021/10/06 12:30:54;;;;;;;6.97;2.97;;;;;15.90;101194.00;;;;10449428;28;20198;-78
2021/10/06 12:35:57;;;;;;;5.78;2.15;;;;;16.60;101204.00;;;;10484381;28;20204;-77
2021/10/06 12:41:10;;;;;;;3.90;1.08;;;;;16.00;101210.00;;;;10467952;28;20947;-78
2021/10/06 12:46:18;;;;;;;2.22;1.10;;;;;15.20;101209.00;;;;10502464;28;20189;-78
2021/10/06 12:51:23;;;;;;;2.65;1.30;;;;;14.90;101213.00;;;;10467422;28;20231;-78
2021/10/06 12:56:36;;;;;;;3.83;1.67;;;;;15.30;101203.00;;;;10469126;28;20181;-77
2021/10/06 13:01:44;;;;;;;8.07;1.57;;;;;15.20;101211.00;;;;10484145;28;20205;-77
2021/10/06 13:06:49;;;;;;;5.13;1.27;;;;;15.30;101232.00;;;;10452427;28;20216;-78
2021/10/06 13:11:53;;;;;;;3.13;1.30;;;;;14.90;101232.00;;;;10468089;28;20193;-78
2021/10/06 13:16:55;;;;;;;5.10;0.93;;;;;15.30;101242.00;;;;10467556;28;20194;-78
2021/10/06 13:21:58;;;;;;;3.80;1.00;;;;;15.40;101240.00;;;;10466351;28;20267;-78
2021/10/06 13:27:00;;;;;;;2.20;1.40;;;;;15.60;101250.00;;;;10450979;28;20194;-77
2021/10/06 13:32:05;;;;;;;2.53;1.10;;;;;15.40;101255.00;;;;10450309;28;20189;-78
2021/10/06 13:37:07;;;;;;;2.47;1.30;;;;;15.30;101265.00;;;;10450312;28;20209;-77
2021/10/06 13:42:11;;;;;;;3.67;1.40;;;;;15.20;101265.00;;;;10448612;28;20210;-78
2021/10/06 13:47:13;;;;;;;3.80;1.20;;;;;15.10;101278.00;;;;10449781;28;20284;-78
2021/10/06 13:52:15;;;;;;;5.80;1.60;;;;;14.90;101279.00;;;;10451041;28;20197;-78
2021/10/06 13:57:17;;;;;;;4.73;1.30;;;;;14.90;101282.00;;;;10481334;28;20189;-78
2021/10/06 14:02:19;;;;;;;5.60;1.93;;;;;14.70;101297.00;;;;10443086;28;20206;-78
2021/10/06 14:07:21;;;;;;;6.83;1.70;;;;;14.40;101297.00;;;;10463367;28;20248;-78
2021/10/06 14:12:25;;;;;;;5.43;1.70;;;;;14.40;101306.00;;;;10443842;28;20244;-78
2021/10/06 14:17:27;;;;;;;3.63;1.53;;;;;14.40;101308.00;;;;10458467;28;20190;-78
2021/10/06 14:22:29;;;;;;;6.73;1.73;;;;;14.40;101314.00;;;;10462975;28;20248;-77
2021/10/06 14:27:35;;;;;;;5.63;2.00;;;;;14.20;101313.00;;;;10479573;28;20194;-77
2021/10/06 14:32:38;;;;;;;5.07;2.20;;;;;14.00;101308.00;;;;10475089;28;20216;-77
2021/10/06 14:37:41;;;;;;;5.00;1.83;;;;;14.00;101307.00;;;;10443589;28;20201;-78
2021/10/06 14:42:43;;;;;;;5.33;2.30;;;;;14.40;101316.00;;;;10462907;28;20244;-79
2021/10/06 14:47:45;;;;;;;5.57;2.30;;;;;14.40;101327.00;;;;10456724;28;20219;-79
2021/10/06 14:52:47;;;;;;;5.97;2.70;;;;;14.70;101329.00;;;;10461310;28;20201;-77
2021/10/06 14:57:49;;;;;;;6.83;2.47;;;;;14.90;101312.00;;;;10441950;28;20216;-78
2021/10/06 15:02:55;;;;;;;5.40;2.10;;;;;14.80;101345.00;;;;10448851;28;20296;-77
2021/10/06 15:07:57;;;;;;;5.00;2.30;;;;;14.60;101350.00;;;;10462186;28;20186;-78
2021/10/06 15:12:59;;;;;;;5.50;2.37;;;;;14.60;101359.00;;;;10462925;28;20205;-77
2021/10/06 15:18:03;;;;;;;8.50;2.30;;;;;14.30;101367.00;;;;10437087;28;20200;-76
2021/10/06 15:23:05;;;;;;;5.63;2.30;;;;;14.10;101373.00;;;;10457843;28;20212;-78
2021/10/06 15:28:07;;;;;;;5.97;2.80;;;;;13.90;101379.00;;;;10478080;28;20185;-77
2021/10/06 15:33:09;;;;;;;6.20;3.03;;;;;13.80;101389.00;;;;10443787;28;20194;-77
2021/10/06 15:38:12;;;;;;;6.03;1.83;;;;;13.50;101396.00;;;;10444788;28;20246;-78
2021/10/06 15:43:15;;;;;;;5.00;2.57;;;;;13.40;101390.00;;;;10431083;28;20244;-78
2021/10/06 15:48:17;;;;;;;5.30;2.67;;;;;13.30;101404.00;;;;10460414;28;20619;-78
2021/10/06 15:53:21;;;;;;;8.43;3.33;;;;;13.30;101401.00;;;;10474590;28;20209;-77
2021/10/06 15:58:24;;;;;;;6.27;2.63;;;;;13.20;101415.00;;;;10443896;28;20193;-77
2021/10/06 16:03:26;;;;;;;8.00;3.13;;;;;13.20;101421.00;;;;10479499;28;20205;-77
2021/10/06 16:08:28;;;;;;;5.83;3.23;;;;;13.10;101422.00;;;;10490793;28;20201;-77
2021/10/06 16:13:30;;;;;;;7.00;2.90;;;;;13.10;101439.00;;;;10474017;28;20196;-76
2021/10/06 16:18:31;;;;;;;9.00;3.17;;;;;13.20;101441.00;;;;10490543;28;20193;-77
2021/10/06 16:23:33;;;;;;;8.90;3.00;;;;;13.20;101451.00;;;;10456853;28;20261;-77
2021/10/06 16:28:36;;;;;;;7.53;3.10;;;;;13.10;101460.00;;;;10472111;28;20690;-77
2021/10/06 16:33:38;;;;;;;5.17;2.67;;;;;13.00;101476.00;;;;10488856;28;20186;-77
2021/10/06 16:38:40;;;;;;;7.20;3.60;;;;;12.90;101481.00;;;;10472956;28;20648;-77
2021/10/06 16:43:43;;;;;;;6.33;3.37;;;;;12.80;101489.00;;;;10465597;28;20231;-77
2021/10/06 16:49:03;;;;;;;8.07;3.33;;;;;12.70;101498.00;;;;10470276;28;20204;-77
2021/10/06 16:54:05;;;;;;;9.20;3.70;;;;;12.60;101493.00;;;;10461544;28;20182;-78
2021/10/06 16:59:06;;;;;;;12.53;4.10;;;;;12.50;101504.00;;;;10474949;28;20192;-77
2021/10/06 17:04:08;;;;;;;10.77;4.10;;;;;12.50;101514.00;;;;10519458;28;20270;-76
2021/10/06 17:09:10;;;;;;;8.43;4.90;;;;;12.40;101513.00;;;;10456508;28;20201;-77
2021/10/06 17:14:12;;;;;;;8.00;4.50;;;;;12.40;101519.00;;;;10455695;28;20240;-77
2021/10/06 17:19:18;;;;;;;13.10;4.33;;;;;12.40;101535.00;;;;10445099;28;20198;-76
2021/10/06 17:24:30;;;;;;;6.10;4.20;;;;;12.20;101534.00;;;;10458816;28;20200;-77
2021/10/06 17:29:32;;;;;;;9.73;5.33;;;;;12.10;101537.00;;;;10515430;28;20220;-77
2021/10/06 17:34:34;;;;;;;7.47;5.17;;;;;12.00;101539.00;;;;10463513;28;20193;-77
2021/10/06 17:39:37;;;;;;;15.00;5.50;;;;;12.00;101548.00;;;;10480437;28;20204;-77
2021/10/06 17:44:39;;;;;;;10.17;5.57;;;;;12.00;101557.00;;;;10457863;28;20665;-78
2021/10/06 17:49:42;;;;;;;11.80;5.60;;;;;12.10;101572.00;;;;10448900;28;20311;-77
2021/10/06 17:54:44;;;;;;;11.97;6.23;;;;;12.20;101577.00;;;;10466493;28;20267;-77
2021/10/06 17:59:46;;;;;;;14.00;7.03;;;;;12.20;101577.00;;;;10470273;28;20193;-76
2021/10/06 18:04:48;;;;;;;10.10;6.33;;;;;12.20;101583.00;;;;10476623;28;20209;-77
2021/10/06 18:09:50;;;;;;;11.93;6.90;;;;;12.30;101594.00;;;;10483187;28;20204;-77
2021/10/06 18:14:52;;;;;;;11.33;6.90;;;;;12.30;101606.00;;;;10483276;28;20603;-77
2021/10/06 18:19:53;;;;;;;12.23;7.90;;;;;12.30;101603.00;;;;10465050;28;20205;-77
2021/10/06 18:24:56;;;;;;;11.17;7.97;;;;;12.30;101621.00;;;;10479827;28;20667;-77
2021/10/06 18:29:58;;;;;;;11.17;7.47;;;;;12.40;101632.00;;;;10503111;28;20220;-77
2021/10/06 18:35:01;;;;;;;11.37;7.83;;;;;12.40;101633.00;;;;10453162;28;20189;-78
2021/10/06 18:40:05;;;;;;;11.67;8.30;;;;;12.30;101638.00;;;;10463094;28;20220;-77
2021/10/06 18:45:07;;;;;;;12.60;9.10;;;;;12.30;101649.00;;;;10463585;28;20202;-77
2021/10/06 18:50:10;;;;;;;11.90;8.70;;;;;12.30;101642.00;;;;10480514;28;20217;-78
2021/10/06 18:55:12;;;;;;;10.43;9.30;;;;;12.30;101643.00;;;;10430434;28;20576;-77
2021/10/06 19:00:22;;;;;;;13.57;9.30;;;;;12.30;101642.00;;;;10450837;28;20240;-77
2021/10/06 19:05:26;;;;;;;14.73;10.33;;;;;12.30;101659.00;;;;10481982;28;20198;-77
2021/10/06 19:10:28;;;;;;;12.57;10.37;;;;;12.30;101667.00;;;;10464277;28;20189;-77
2021/10/06 19:15:30;;;;;;;13.00;11.40;;;;;12.40;101661.00;;;;10501772;28;20243;-77
2021/10/06 19:20:33;;;;;;;13.77;10.90;;;;;12.40;101669.00;;;;10427016;28;20190;-77
2021/10/06 19:25:35;;;;;;;16.97;11.90;;;;;12.40;101664.00;;;;10493878;28;20665;-78
2021/10/06 19:30:37;;;;;;;14.07;11.83;;;;;12.40;101677.00;;;;10463755;28;20197;-78
2021/10/06 19:35:45;;;;;;;20.50;11.27;;;;;12.50;101686.00;;;;10461469;28;20181;-77
2021/10/06 19:40:48;;;;;;;12.70;9.43;;;;;12.50;101691.00;;;;10473160;28;20209;-78
2021/10/06 19:45:49;;;;;;;12.43;8.97;;;;;12.50;101698.00;;;;10459184;28;20220;-77
2021/10/06 19:50:51;;;;;;;9.00;7.60;;;;;12.60;101707.00;;;;10485647;28;20220;-78
2021/10/06 19:55:53;;;;;;;8.90;6.37;;;;;12.60;101714.00;;;;10468077;28;20185;-78
2021/10/06 20:00:55;;;;;;;8.57;6.70;;;;;12.60;101715.00;;;;10463383;28;20198;-78
2021/10/06 20:05:57;;;;;;;6.83;5.70;;;;;12.60;101718.00;;;;10453509;28;20204;-77
2021/10/06 20:10:59;;;;;;;6.07;5.43;;;;;12.60;101731.00;;;;10471828;28;20328;-77
2021/10/06 20:16:02;;;;;;;8.73;5.27;;;;;12.60;101733.00;;;;10482839;28;20197;-77
2021/10/06 20:21:07;;;;;;;7.10;4.63;;;;;12.50;101727.00;;;;10479171;28;20194;-80
2021/10/06 20:26:11;;;;;;;5.00;3.37;;;;;12.40;101748.00;;;;10474936;28;20205;-80
2021/10/06 20:31:14;;;;;;;11.00;4.40;;;;;12.30;101742.00;;;;10469184;28;20652;-80
2021/10/06 20:41:18;;;;;;;7.53;3.93;;;;;12.30;101744.00;;;;10455345;28;20218;-79
2021/10/06 20:46:22;;;;;;;7.93;4.20;;;;;12.30;101750.00;;;;10465950;28;20228;-78
2021/10/06 20:51:24;;;;;;;8.00;3.70;;;;;12.30;101755.00;;;;10472302;28;20217;-79
2021/10/06 20:56:27;;;;;;;7.13;4.80;;;;;12.30;101755.00;;;;10494927;28;20193;-79
2021/10/06 21:01:29;;;;;;;8.60;5.17;;;;;12.30;101759.00;;;;10481538;28;20728;-79
2021/10/06 21:06:32;;;;;;;8.90;5.17;;;;;12.30;101756.00;;;;10464486;28;20215;-79
2021/10/06 21:11:34;;;;;;;12.17;7.67;;;;;12.30;101763.00;;;;10475652;28;20197;-78
2021/10/06 21:16:36;;;;;;;16.47;8.90;;;;;12.30;101764.00;;;;10448341;28;20537;-77
2021/10/06 21:21:38;;;;;;;18.07;10.13;;;;;12.30;101778.00;;;;10491439;28;20194;-78
2021/10/06 21:26:40;;;;;;;17.43;10.47;;;;;12.40;101777.00;;;;10454892;28;20208;-78
2021/10/06 21:31:42;;;;;;;12.57;9.37;;;;;12.40;101777.00;;;;10465335;28;20258;-78
2021/10/06 21:36:45;;;;;;;13.23;9.63;;;;;12.40;101775.00;;;;10484271;28;20273;-77
2021/10/06 21:41:47;;;;;;;16.07;9.90;;;;;12.50;101771.00;;;;10485490;28;20202;-78
2021/10/06 21:46:49;;;;;;;17.60;10.40;;;;;12.50;101773.00;;;;10469562;28;20216;-77
2021/10/06 21:51:51;;;;;;;13.67;9.83;;;;;12.50;101781.00;;;;10470285;28;20225;-78
2021/10/06 21:56:54;;;;;;;13.57;10.23;;;;;12.60;101784.00;;;;10453053;28;20208;-78
2021/10/06 22:01:57;;;;;;;12.80;9.90;;;;;12.60;101784.00;;;;10501844;28;20193;-79
2021/10/06 22:07:02;;;;;;;20.27;11.10;;;;;12.60;101792.00;;;;10468185;28;20773;-79
2021/10/06 22:12:04;;;;;;;19.20;9.80;;;;;12.60;101793.00;;;;10452433;28;20193;-79
2021/10/06 22:17:06;;;;;;;12.50;8.57;;;;;12.70;101807.00;;;;10484903;28;20247;-78
2021/10/06 22:22:08;;;;;;;12.47;8.37;;;;;12.70;101814.00;;;;10501515;28;20197;-78
2021/10/06 22:27:10;;;;;;;9.77;6.70;;;;;12.70;101819.00;;;;10451318;28;20251;-78
2021/10/06 22:32:12;;;;;;;12.73;8.07;;;;;12.70;101826.00;;;;10466531;28;20190;-78
2021/10/06 22:37:14;;;;;;;11.07;8.00;;;;;12.70;101825.00;;;;10466831;28;20185;-79
2021/10/06 22:42:16;;;;;;;7.50;6.30;;;;;12.70;101839.00;;;;10450688;28;20287;-78
2021/10/06 22:47:18;;;;;;;9.27;7.20;;;;;12.70;101840.00;;;;10466993;28;20706;-78
2021/10/06 22:52:20;;;;;;;12.03;6.27;;;;;12.70;101846.00;;;;10458965;28;20198;-78
2021/10/06 22:57:22;;;;;;;12.10;6.90;;;;;12.70;101852.00;;;;10484876;28;20194;-79
2021/10/06 23:02:24;;;;;;;11.63;5.87;;;;;12.70;101858.00;;;;10466574;28;20699;-79
2021/10/06 23:07:26;;;;;;;9.80;7.10;;;;;12.70;101852.00;;;;10450576;28;20221;-78
2021/10/06 23:12:28;;;;;;;20.87;8.63;;;;;12.70;101858.00;;;;10482326;28;20530;-78
2021/10/06 23:17:30;;;;;;;26.10;12.00;;;;;12.70;101856.00;;;;10498937;28;20821;-78
2021/10/06 23:22:32;;;;;;;18.27;10.23;;;;;12.70;101864.00;;;;10440881;28;20209;-78
2021/10/06 23:27:34;;;;;;;23.23;11.20;;;;;12.70;101871.00;;;;10449318;28;20193;-78
2021/10/06 23:32:36;;;;;;;24.17;9.50;;;;;12.60;101872.00;;;;10497999;28;20190;-78
2021/10/06 23:37:38;;;;;;;24.87;8.40;;;;;12.60;101864.00;;;;10448872;28;20189;-77
2021/10/06 23:42:40;;;;;;;20.23;7.53;;;;;12.60;101864.00;;;;10423553;28;20242;-77
2021/10/06 23:47:42;;;;;;;23.20;8.07;;;;;12.50;101871.00;;;;10469483;28;20194;-77
2021/10/06 23:52:46;;;;;;;28.00;8.33;;;;;12.40;101870.00;;;;10439715;28;20251;-77
2021/10/06 23:57:48;;;;;;;25.70;8.77;;;;;12.40;101877.00;;;;10467176;28;20221;-77
